WetterOnline ( https://www.wetteronline.de )

Wetter aktuell Bönnigheim

Aktuelles Wetter: Mühlacker (245m)

6-stündlich | Neueste Meldungen
Ortszeit Temperatur Wetter
Di, 16.07. 20:00 23.1° C leicht bewölkt
Di, 16.07. 14:00 21.7° C wolkenlos
Di, 16.07. 8:00 12.9° C wolkenlos
Di, 16.07. 2:00 9.9° C wolkenlos
Mo, 15.07. 20:00 21.2° C wolkenlos
Mo, 15.07. 14:00 21.2° C wolkig
Mo, 15.07. 8:00 13.2° C wolkig
Mo, 15.07. 2:00 10.7° C leicht bewölkt
Ortszeit Temperatur Wetter
Di, 16.07. 20:00 23.1° C leicht bewölkt
Di, 16.07. 19:50 23.1° C wolkig
Di, 16.07. 19:40 23.3° C wolkig
Di, 16.07. 19:30 23.8° C wolkig
Di, 16.07. 19:20 23.8° C wolkig
Di, 16.07. 19:10 23.7° C wolkig
Di, 16.07. 19:00 23.6° C leicht bewölkt
Di, 16.07. 18:30 23.9° C wolkig
Di, 16.07. 18:00 24.2° C leicht bewölkt
Di, 16.07. 17:30 24.0° C wolkig
Di, 16.07. 17:00 23.8° C wolkenlos
Ortszeit Relative Feuchte Sichtweite
Di, 16.07. 20:00 38% 40 km
Di, 16.07. 14:00 52% 20 km
Di, 16.07. 8:00 86% 5.0 km
Di, 16.07. 2:00 93% 6 km
Mo, 15.07. 20:00 51% 40 km
Mo, 15.07. 14:00 58% 35 km
Mo, 15.07. 8:00 85% 16 km
Mo, 15.07. 2:00 95% 25 km
Ortszeit Relative Feuchte Sichtweite
Di, 16.07. 20:00 38% 40 km
Di, 16.07. 19:50 38% -
Di, 16.07. 19:40 37% -
Di, 16.07. 19:30 37% 50 km
Di, 16.07. 19:20 37% -
Di, 16.07. 19:10 36% -
Di, 16.07. 19:00 37% 50 km
Di, 16.07. 18:30 37% 35 km
Di, 16.07. 18:00 38% 25 km
Di, 16.07. 17:30 39% 30 km
Di, 16.07. 17:00 40% 30 km
Ortszeit Niederschlagsmenge Niederschlagsart
Di, 16.07. 20:00 0.1 l/m2 in 12 Std. -
Di, 16.07. 14:00 0.0 l/m2 in 6 Std. -
Di, 16.07. 8:00 0.0 l/m2 in 12 Std. -
Di, 16.07. 2:00 0.0 l/m2 in 6 Std. -
Mo, 15.07. 20:00 0.0 l/m2 in 12 Std. -
Mo, 15.07. 14:00 0.0 l/m2 in 6 Std. -
Mo, 15.07. 8:00 0.0 l/m2 in 12 Std. -
Mo, 15.07. 2:00 0.0 l/m2 in 6 Std. -
Ortszeit Niederschlagsmenge Niederschlagsart
Di, 16.07. 20:00 0.1 l/m2 in 1 Std. -
Di, 16.07. 19:50 keine Meldung -
Di, 16.07. 19:40 keine Meldung -
Di, 16.07. 19:30 0.0 l/m2 in 1 Std. -
Di, 16.07. 19:20 keine Meldung -
Di, 16.07. 19:10 keine Meldung -
Di, 16.07. 19:00 0.0 l/m2 in 1 Std. -
Di, 16.07. 18:30 0.0 l/m2 in 1 Std. -
Di, 16.07. 18:00 0.0 l/m2 in 1 Std. -
Di, 16.07. 17:30 0.0 l/m2 in 1 Std. -
Di, 16.07. 17:00 0.0 l/m2 in 1 Std. -
Ortszeit Stärke Spitze Richtung
km/h Bft. km/h Grad Sektor
Di, 16.07. 20:00 7 2 24 330° NW
Di, 16.07. 14:00 9 2 22 290° W
Di, 16.07. 8:00 0 0 7 - -
Di, 16.07. 2:00 0 0 25 - -
Mo, 15.07. 20:00 14 3 29 320° NW
Mo, 15.07. 14:00 6 1 20 320° NW
Mo, 15.07. 8:00 7 2 11 330° NW
Mo, 15.07. 2:00 2 1 26 300° NW
Ortszeit Stärke Spitze Richtung
km/h Bft. km/h Grad Sektor
Di, 16.07. 20:00 7 2 15 330° NW
Di, 16.07. 19:50 7 2 - 330° NW
Di, 16.07. 19:40 7 2 - 310° NW
Di, 16.07. 19:30 7 2 14 330° NW
Di, 16.07. 19:20 7 2 - 330° NW
Di, 16.07. 19:10 9 2 - 320° NW
Di, 16.07. 19:00 9 2 17 320° NW
Di, 16.07. 18:30 9 2 17 300° NW
Di, 16.07. 18:00 7 2 20 300° NW
Di, 16.07. 17:30 11 2 22 300° NW
Di, 16.07. 17:00 11 2 22 310° NW
Ortszeit Untergrenze Bedeckung Gattung
total tief tief mittel hoch
Di, 16.07. 20:00 9000 m 8/8 0/8 - - -
Di, 16.07. 14:00 - 0/8 0/8 - - -
Di, 16.07. 8:00 - 0/8 0/8 - - -
Di, 16.07. 2:00 - 0/8 0/8 - - -
Mo, 15.07. 20:00 8400 m 0/8 0/8 - - -
Mo, 15.07. 14:00 1110 m 6/8 6/8 - - -
Mo, 15.07. 8:00 420 m 6/8 6/8 - - -
Mo, 15.07. 2:00 2400 m 2/8 2/8 - - -
Ortszeit Bedeckungsgrad in Achtel und Wolkenuntergrenze
Di, 16.07. 20:00 8(9000m) 8(10500m)
Di, 16.07. 19:50 8(9000m) 8(10500m)
Di, 16.07. 19:40 8(9000m)
Di, 16.07. 19:30 8(9000m)
Di, 16.07. 19:20 8(9000m)
Di, 16.07. 19:10 8(9000m)
Di, 16.07. 19:00 7(9000m)
Di, 16.07. 18:30 7(9000m)
Di, 16.07. 18:00 8(9000m) 8(9000m)
Di, 16.07. 17:30 7(9000m)
Di, 16.07. 17:00 1(9000m)
Ortszeit Luftdruck NN (hPa) Tendenz (hPa in 3 Std.)
Di, 16.07. 20:00 1015 - 0,6
Di, 16.07. 14:00 1017 - 0,8
Di, 16.07. 8:00 1019 - 0,1
Di, 16.07. 2:00 1020 + 1,0
Mo, 15.07. 20:00 1016 0,0
Mo, 15.07. 14:00 1016 - 0,6
Mo, 15.07. 8:00 1017 + 0,2
Mo, 15.07. 2:00 1018 + 0,2
Ortszeit Luftdruck NN (hPa) Tendenz (hPa in 3 Std.)
Di, 16.07. 20:00 1015 - 0,6
Di, 16.07. 19:50 1015 keine Meldung
Di, 16.07. 19:40 1015 keine Meldung
Di, 16.07. 19:30 1015 - 0,8
Di, 16.07. 19:20 1015 keine Meldung
Di, 16.07. 19:10 1015 keine Meldung
Di, 16.07. 19:00 1015 - 0,9
Di, 16.07. 18:30 1015 - 1,0
Di, 16.07. 18:00 1015 - 0,8
Di, 16.07. 17:30 1016 - 0,9
Di, 16.07. 17:00 1016 - 0,8
Ortszeit Schneehöhe (cm)
Di, 16.07. 20:00 -
Di, 16.07. 14:00 -
Di, 16.07. 8:00 -
Di, 16.07. 2:00 -
Mo, 15.07. 20:00 -
Mo, 15.07. 14:00 -
Mo, 15.07. 8:00 -
Mo, 15.07. 2:00 -
Ortszeit Schneehöhe (cm)
Di, 16.07. 20:00 -
Di, 16.07. 19:50 -
Di, 16.07. 19:40 -
Di, 16.07. 19:30 -
Di, 16.07. 19:20 -
Di, 16.07. 19:10 -
Di, 16.07. 19:00 -
Di, 16.07. 18:30 -
Di, 16.07. 18:00 -
Di, 16.07. 17:30 -
Di, 16.07. 17:00 -
Link zu dieser Seite / Seite empfehlen

Das Wetter in ...